Terminal Aerodrome Forecast
Issued by NWS

Home | Current Version | Previous Version | Graphics & Text | Print | Product List | Glossary On
Versions: 1 2 3 4 5 6 7 8 9 10 11 12 13 14 15 16 17
000
FTUS43 KMPX 280500
TAFRNH
TAF
KRNH 280520Z 2806/2906 00000KT P6SM SCT250
      TEMPO 2810/2813 5SM BR
     FM281600 13007KT P6SM SCT060 OVC150
     FM282100 13006KT 6SM -SHRA BKN025 OVC035
     FM290300 12005KT 5SM -SHRA BR SCT007 OVC010=

USA.gov is the U.S. government's official web portal to all federal, state and local government web resources and services.